sensor_id;sensor_type;location;lat;lon;timestamp;pressure;altitude;pressure_sealevel;temperature
59339;BMP280;45117;50.960;5.500;2023-07-22T00:01:16;100558.69;;;12.83
59339;BMP280;45117;50.960;5.500;2023-07-22T00:03:45;100522.63;;;12.57
59339;BMP280;45117;50.960;5.500;2023-07-22T00:06:12;100498.31;;;12.41
59339;BMP280;45117;50.960;5.500;2023-07-22T00:08:39;100505.09;;;12.49
59339;BMP280;45117;50.960;5.500;2023-07-22T00:11:05;100566.69;;;12.87
59339;BMP280;45117;50.960;5.500;2023-07-22T00:13:34;100530.59;;;12.64
59339;BMP280;45117;50.960;5.500;2023-07-22T00:16:01;100557.09;;;12.86
59339;BMP280;45117;50.960;5.500;2023-07-22T00:18:36;100577.78;;;12.92
59339;BMP280;45117;50.960;5.500;2023-07-22T00:21:03;100565.53;;;12.88
59339;BMP280;45117;50.960;5.500;2023-07-22T00:23:32;100575.84;;;12.93
59339;BMP280;45117;50.960;5.500;2023-07-22T00:25:58;100559.47;;;12.84
59339;BMP280;45117;50.960;5.500;2023-07-22T00:28:25;100550.06;;;12.72
59339;BMP280;45117;50.960;5.500;2023-07-22T00:30:53;100569.38;;;12.87
59339;BMP280;45117;50.960;5.500;2023-07-22T00:33:24;100564.97;;;12.77
59339;BMP280;45117;50.960;5.500;2023-07-22T00:35:52;100558.91;;;12.73
59339;BMP280;45117;50.960;5.500;2023-07-22T00:38:19;100548.59;;;12.68
59339;BMP280;45117;50.960;5.500;2023-07-22T00:40:45;100553.22;;;12.67
59339;BMP280;45117;50.960;5.500;2023-07-22T00:43:12;100563.09;;;12.74
59339;BMP280;45117;50.960;5.500;2023-07-22T00:45:39;100567.31;;;12.75
59339;BMP280;45117;50.960;5.500;2023-07-22T00:48:08;100571.13;;;12.77
59339;BMP280;45117;50.960;5.500;2023-07-22T00:50:35;100572.63;;;12.78
59339;BMP280;45117;50.960;5.500;2023-07-22T00:53:02;100562.41;;;12.70
59339;BMP280;45117;50.960;5.500;2023-07-22T00:55:33;100556.75;;;12.64
59339;BMP280;45117;50.960;5.500;2023-07-22T00:57:59;100575.38;;;12.75
59339;BMP280;45117;50.960;5.500;2023-07-22T01:00:26;100525.72;;;12.36
59339;BMP280;45117;50.960;5.500;2023-07-22T01:02:53;100552.25;;;12.57
59339;BMP280;45117;50.960;5.500;2023-07-22T01:05:21;100520.38;;;12.32
59339;BMP280;45117;50.960;5.500;2023-07-22T01:07:48;100552.41;;;12.50
59339;BMP280;45117;50.960;5.500;2023-07-22T01:10:14;100558.69;;;12.63
59339;BMP280;45117;50.960;5.500;2023-07-22T01:12:41;100553.22;;;12.67
59339;BMP280;45117;50.960;5.500;2023-07-22T01:15:07;100526.78;;;12.42
59339;BMP280;45117;50.960;5.500;2023-07-22T01:17:36;100556.00;;;12.63
59339;BMP280;45117;50.960;5.500;2023-07-22T01:20:04;100552.13;;;12.64
59339;BMP280;45117;50.960;5.500;2023-07-22T01:22:33;100532.16;;;12.62
59339;BMP280;45117;50.960;5.500;2023-07-22T01:25:01;100529.06;;;12.63
59339;BMP280;45117;50.960;5.500;2023-07-22T01:27:28;100516.53;;;12.53
59339;BMP280;45117;50.960;5.500;2023-07-22T01:29:57;100525.00;;;12.55
59339;BMP280;45117;50.960;5.500;2023-07-22T01:32:23;100534.09;;;12.61
59339;BMP280;45117;50.960;5.500;2023-07-22T01:34:50;100522.25;;;12.59
59339;BMP280;45117;50.960;5.500;2023-07-22T01:37:16;100511.72;;;12.45
59339;BMP280;45117;50.960;5.500;2023-07-22T01:39:44;100490.38;;;12.34
59339;BMP280;45117;50.960;5.500;2023-07-22T01:42:12;100491.63;;;12.29
59339;BMP280;45117;50.960;5.500;2023-07-22T01:44:40;100500.47;;;12.30
59339;BMP280;45117;50.960;5.500;2023-07-22T01:47:06;100534.25;;;12.54
59339;BMP280;45117;50.960;5.500;2023-07-22T01:49:33;100533.56;;;12.50
59339;BMP280;45117;50.960;5.500;2023-07-22T01:52:00;100467.84;;;12.04
59339;BMP280;45117;50.960;5.500;2023-07-22T01:54:27;100522.94;;;12.40
59339;BMP280;45117;50.960;5.500;2023-07-22T01:56:53;100514.56;;;12.38
59339;BMP280;45117;50.960;5.500;2023-07-22T01:59:21;100533.25;;;12.45
59339;BMP280;45117;50.960;5.500;2023-07-22T02:01:48;100514.63;;;12.34
59339;BMP280;45117;50.960;5.500;2023-07-22T02:04:15;100517.16;;;12.41
59339;BMP280;45117;50.960;5.500;2023-07-22T02:06:41;100501.28;;;12.27
59339;BMP280;45117;50.960;5.500;2023-07-22T02:09:08;100510.25;;;12.40
59339;BMP280;45117;50.960;5.500;2023-07-22T02:11:35;100507.72;;;12.33
59339;BMP280;45117;50.960;5.500;2023-07-22T02:14:01;100520.09;;;12.50
59339;BMP280;45117;50.960;5.500;2023-07-22T02:16:33;100485.84;;;12.31
59339;BMP280;45117;50.960;5.500;2023-07-22T02:19:00;100507.09;;;12.45
59339;BMP280;45117;50.960;5.500;2023-07-22T02:21:27;100482.44;;;12.27
59339;BMP280;45117;50.960;5.500;2023-07-22T02:23:54;100469.47;;;12.22
59339;BMP280;45117;50.960;5.500;2023-07-22T02:26:21;100481.13;;;12.35
59339;BMP280;45117;50.960;5.500;2023-07-22T02:28:47;100493.22;;;12.47
59339;BMP280;45117;50.960;5.500;2023-07-22T02:31:14;100519.09;;;12.60
59339;BMP280;45117;50.960;5.500;2023-07-22T02:33:44;100494.31;;;12.49
59339;BMP280;45117;50.960;5.500;2023-07-22T02:36:12;100520.56;;;12.65
59339;BMP280;45117;50.960;5.500;2023-07-22T02:38:39;100491.78;;;12.42
59339;BMP280;45117;50.960;5.500;2023-07-22T02:41:07;100506.22;;;12.52
59339;BMP280;45117;50.960;5.500;2023-07-22T02:43:34;100522.25;;;12.59
59339;BMP280;45117;50.960;5.500;2023-07-22T02:46:01;100467.97;;;12.21
59339;BMP280;45117;50.960;5.500;2023-07-22T02:48:29;100516.66;;;12.50
59339;BMP280;45117;50.960;5.500;2023-07-22T02:51:03;100481.34;;;12.24
59339;BMP280;45117;50.960;5.500;2023-07-22T02:53:30;100462.00;;;12.10
59339;BMP280;45117;50.960;5.500;2023-07-22T02:55:57;100477.53;;;12.22
59339;BMP280;45117;50.960;5.500;2023-07-22T02:58:24;100426.34;;;11.82
59339;BMP280;45117;50.960;5.500;2023-07-22T03:00:50;100524.84;;;12.43
59339;BMP280;45117;50.960;5.500;2023-07-22T03:03:17;100469.44;;;12.02
59339;BMP280;45117;50.960;5.500;2023-07-22T03:05:44;100462.59;;;11.97
59339;BMP280;45117;50.960;5.500;2023-07-22T03:08:12;100512.00;;;12.30
59339;BMP280;45117;50.960;5.500;2023-07-22T03:10:39;100418.53;;;11.68
59339;BMP280;45117;50.960;5.500;2023-07-22T03:13:05;100502.25;;;12.17
59339;BMP280;45117;50.960;5.500;2023-07-22T03:15:32;100515.56;;;12.24
59339;BMP280;45117;50.960;5.500;2023-07-22T03:17:59;100466.25;;;11.87
59339;BMP280;45117;50.960;5.500;2023-07-22T03:20:26;100537.84;;;12.24
59339;BMP280;45117;50.960;5.500;2023-07-22T03:22:52;100525.34;;;12.14
59339;BMP280;45117;50.960;5.500;2023-07-22T03:25:21;100480.56;;;11.81
59339;BMP280;45117;50.960;5.500;2023-07-22T03:27:47;100529.28;;;12.10
59339;BMP280;45117;50.960;5.500;2023-07-22T03:30:17;100489.03;;;11.79
59339;BMP280;45117;50.960;5.500;2023-07-22T03:32:45;100530.13;;;12.03
59339;BMP280;45117;50.960;5.500;2023-07-22T03:35:12;100538.19;;;12.03
59339;BMP280;45117;50.960;5.500;2023-07-22T03:37:40;100535.50;;;12.03
59339;BMP280;45117;50.960;5.500;2023-07-22T03:40:07;100539.28;;;12.09
59339;BMP280;45117;50.960;5.500;2023-07-22T03:42:38;100492.06;;;11.81
59339;BMP280;45117;50.960;5.500;2023-07-22T03:45:06;100545.63;;;12.19
59339;BMP280;45117;50.960;5.500;2023-07-22T03:47:33;100528.53;;;12.09
59339;BMP280;45117;50.960;5.500;2023-07-22T03:50:00;100531.47;;;12.15
59339;BMP280;45117;50.960;5.500;2023-07-22T03:52:26;100522.16;;;12.19
59339;BMP280;45117;50.960;5.500;2023-07-22T03:54:53;100478.41;;;11.95
59339;BMP280;45117;50.960;5.500;2023-07-22T03:57:25;100529.84;;;12.41
59339;BMP280;45117;50.960;5.500;2023-07-22T03:59:53;100499.88;;;12.19
59339;BMP280;45117;50.960;5.500;2023-07-22T04:02:34;100521.03;;;12.40
59339;BMP280;45117;50.960;5.500;2023-07-22T04:05:01;100458.38;;;11.96
59339;BMP280;45117;50.960;5.500;2023-07-22T04:07:27;100535.84;;;12.52
59339;BMP280;45117;50.960;5.500;2023-07-22T04:09:54;100510.00;;;12.34
59339;BMP280;45117;50.960;5.500;2023-07-22T04:12:21;100462.53;;;12.01
59339;BMP280;45117;50.960;5.500;2023-07-22T04:14:49;100502.34;;;12.33
59339;BMP280;45117;50.960;5.500;2023-07-22T04:17:17;100541.16;;;12.55
59339;BMP280;45117;50.960;5.500;2023-07-22T04:19:44;100542.16;;;12.61
59339;BMP280;45117;50.960;5.500;2023-07-22T04:22:10;100537.50;;;12.65
59339;BMP280;45117;50.960;5.500;2023-07-22T04:24:37;100526.88;;;12.58
59339;BMP280;45117;50.960;5.500;2023-07-22T04:27:04;100521.25;;;12.49
59339;BMP280;45117;50.960;5.500;2023-07-22T04:29:31;100494.97;;;12.37
59339;BMP280;45117;50.960;5.500;2023-07-22T04:31:58;100513.84;;;12.53
59339;BMP280;45117;50.960;5.500;2023-07-22T04:34:28;100460.91;;;12.27
59339;BMP280;45117;50.960;5.500;2023-07-22T04:36:55;100519.06;;;12.64
59339;BMP280;45117;50.960;5.500;2023-07-22T04:39:22;100530.22;;;12.82
59339;BMP280;45117;50.960;5.500;2023-07-22T04:41:49;100524.44;;;12.84
59339;BMP280;45117;50.960;5.500;2023-07-22T04:44:16;100520.19;;;12.83
59339;BMP280;45117;50.960;5.500;2023-07-22T04:46:44;100531.16;;;13.12
59339;BMP280;45117;50.960;5.500;2023-07-22T04:49:12;100454.28;;;12.71
59339;BMP280;45117;50.960;5.500;2023-07-22T04:51:44;100443.41;;;12.75
59339;BMP280;45117;50.960;5.500;2023-07-22T04:54:10;100522.47;;;13.20
59339;BMP280;45117;50.960;5.500;2023-07-22T04:56:37;100448.47;;;12.73
59339;BMP280;45117;50.960;5.500;2023-07-22T04:59:04;100481.84;;;12.95
59339;BMP280;45117;50.960;5.500;2023-07-22T05:01:30;100473.41;;;13.13
59339;BMP280;45117;50.960;5.500;2023-07-22T05:03:59;100492.25;;;13.29
59339;BMP280;45117;50.960;5.500;2023-07-22T05:06:25;100530.47;;;13.60
59339;BMP280;45117;50.960;5.500;2023-07-22T05:08:53;100513.69;;;13.52
59339;BMP280;45117;50.960;5.500;2023-07-22T05:11:20;100512.50;;;13.53
59339;BMP280;45117;50.960;5.500;2023-07-22T05:13:48;100523.06;;;13.64
59339;BMP280;45117;50.960;5.500;2023-07-22T05:16:15;100468.19;;;13.38
59339;BMP280;45117;50.960;5.500;2023-07-22T05:18:41;100545.78;;;13.79
59339;BMP280;45117;50.960;5.500;2023-07-22T05:21:08;100544.03;;;13.89
59339;BMP280;45117;50.960;5.500;2023-07-22T05:23:34;100532.88;;;13.87
59339;BMP280;45117;50.960;5.500;2023-07-22T05:26:02;100530.41;;;14.09
59339;BMP280;45117;50.960;5.500;2023-07-22T05:28:29;100534.19;;;14.82
59339;BMP280;45117;50.960;5.500;2023-07-22T05:30:56;100484.25;;;14.61
59339;BMP280;45117;50.960;5.500;2023-07-22T05:33:22;100532.94;;;15.12
59339;BMP280;45117;50.960;5.500;2023-07-22T05:35:52;100516.56;;;15.41
59339;BMP280;45117;50.960;5.500;2023-07-22T05:38:19;100532.09;;;15.75
59339;BMP280;45117;50.960;5.500;2023-07-22T05:40:45;100538.81;;;16.05
59339;BMP280;45117;50.960;5.500;2023-07-22T05:43:13;100533.59;;;15.76
59339;BMP280;45117;50.960;5.500;2023-07-22T05:45:40;100537.88;;;15.65
59339;BMP280;45117;50.960;5.500;2023-07-22T05:48:06;100540.94;;;15.41
59339;BMP280;45117;50.960;5.500;2023-07-22T05:50:33;100513.34;;;15.21
59339;BMP280;45117;50.960;5.500;2023-07-22T05:53:00;100522.94;;;15.47
59339;BMP280;45117;50.960;5.500;2023-07-22T05:55:26;100527.81;;;15.52
59339;BMP280;45117;50.960;5.500;2023-07-22T05:57:53;100523.09;;;15.31
59339;BMP280;45117;50.960;5.500;2023-07-22T06:00:21;100535.41;;;15.45
59339;BMP280;45117;50.960;5.500;2023-07-22T06:02:48;100512.28;;;15.31
59339;BMP280;45117;50.960;5.500;2023-07-22T06:05:15;100545.03;;;15.93
59339;BMP280;45117;50.960;5.500;2023-07-22T06:07:41;100532.34;;;16.03
59339;BMP280;45117;50.960;5.500;2023-07-22T06:10:09;100508.69;;;16.16
59339;BMP280;45117;50.960;5.500;2023-07-22T06:12:35;100480.91;;;16.34
59339;BMP280;45117;50.960;5.500;2023-07-22T06:15:03;100553.50;;;16.92
59339;BMP280;45117;50.960;5.500;2023-07-22T06:17:31;100515.56;;;17.01
59339;BMP280;45117;50.960;5.500;2023-07-22T06:19:58;100547.16;;;18.87
59339;BMP280;45117;50.960;5.500;2023-07-22T06:22:25;100481.75;;;17.69
59339;BMP280;45117;50.960;5.500;2023-07-22T06:24:51;100494.31;;;18.36
59339;BMP280;45117;50.960;5.500;2023-07-22T06:27:18;100556.97;;;19.41
59339;BMP280;45117;50.960;5.500;2023-07-22T06:29:45;100496.16;;;21.03
59339;BMP280;45117;50.960;5.500;2023-07-22T06:32:12;100511.91;;;20.93
59339;BMP280;45117;50.960;5.500;2023-07-22T06:34:40;100532.25;;;21.33
59339;BMP280;45117;50.960;5.500;2023-07-22T06:37:06;100534.94;;;21.73
59339;BMP280;45117;50.960;5.500;2023-07-22T06:39:33;100567.41;;;21.91
59339;BMP280;45117;50.960;5.500;2023-07-22T06:42:00;100523.41;;;22.58
59339;BMP280;45117;50.960;5.500;2023-07-22T06:44:26;100560.22;;;22.57
59339;BMP280;45117;50.960;5.500;2023-07-22T06:46:53;100530.53;;;21.81
59339;BMP280;45117;50.960;5.500;2023-07-22T06:49:19;100508.75;;;22.72
59339;BMP280;45117;50.960;5.500;2023-07-22T06:51:48;100526.97;;;22.01
59339;BMP280;45117;50.960;5.500;2023-07-22T06:54:14;100558.25;;;22.63
59339;BMP280;45117;50.960;5.500;2023-07-22T06:56:41;100554.03;;;22.25
59339;BMP280;45117;50.960;5.500;2023-07-22T06:59:08;100533.34;;;21.67
59339;BMP280;45117;50.960;5.500;2023-07-22T07:01:34;100537.25;;;21.14
59339;BMP280;45117;50.960;5.500;2023-07-22T07:04:01;100541.91;;;21.74
59339;BMP280;45117;50.960;5.500;2023-07-22T07:06:28;100557.00;;;22.21
59339;BMP280;45117;50.960;5.500;2023-07-22T07:09:01;100547.41;;;21.54
59339;BMP280;45117;50.960;5.500;2023-07-22T07:11:28;100537.97;;;22.44
59339;BMP280;45117;50.960;5.500;2023-07-22T07:13:55;100528.81;;;22.95
59339;BMP280;45117;50.960;5.500;2023-07-22T07:16:23;100547.38;;;23.28
59339;BMP280;45117;50.960;5.500;2023-07-22T07:18:50;100542.22;;;23.58
59339;BMP280;45117;50.960;5.500;2023-07-22T07:21:17;100562.13;;;23.58
59339;BMP280;45117;50.960;5.500;2023-07-22T07:23:43;100522.00;;;24.17
59339;BMP280;45117;50.960;5.500;2023-07-22T07:26:12;100544.19;;;23.57
59339;BMP280;45117;50.960;5.500;2023-07-22T07:28:38;100528.34;;;23.08
59339;BMP280;45117;50.960;5.500;2023-07-22T07:31:05;100539.94;;;22.80
59339;BMP280;45117;50.960;5.500;2023-07-22T07:33:32;100529.25;;;22.40
59339;BMP280;45117;50.960;5.500;2023-07-22T07:35:59;100518.16;;;22.54
59339;BMP280;45117;50.960;5.500;2023-07-22T07:38:26;100539.03;;;21.63
59339;BMP280;45117;50.960;5.500;2023-07-22T07:40:57;100549.13;;;21.11
59339;BMP280;45117;50.960;5.500;2023-07-22T07:43:26;100541.22;;;21.33
59339;BMP280;45117;50.960;5.500;2023-07-22T07:46:14;100548.72;;;21.64
59339;BMP280;45117;50.960;5.500;2023-07-22T07:48:43;100533.22;;;21.29
59339;BMP280;45117;50.960;5.500;2023-07-22T07:51:12;100554.88;;;21.33
59339;BMP280;45117;50.960;5.500;2023-07-22T07:53:38;100547.88;;;21.52
59339;BMP280;45117;50.960;5.500;2023-07-22T07:56:06;100516.25;;;21.72
59339;BMP280;45117;50.960;5.500;2023-07-22T07:58:36;100540.41;;;21.27
59339;BMP280;45117;50.960;5.500;2023-07-22T08:01:06;100536.72;;;21.56
59339;BMP280;45117;50.960;5.500;2023-07-22T08:03:35;100548.81;;;21.95
59339;BMP280;45117;50.960;5.500;2023-07-22T08:06:01;100545.72;;;21.36
59339;BMP280;45117;50.960;5.500;2023-07-22T08:08:31;100531.66;;;21.69
59339;BMP280;45117;50.960;5.500;2023-07-22T08:10:58;100529.53;;;21.33
59339;BMP280;45117;50.960;5.500;2023-07-22T08:13:25;100530.31;;;20.78
59339;BMP280;45117;50.960;5.500;2023-07-22T08:15:54;100551.03;;;21.05
59339;BMP280;45117;50.960;5.500;2023-07-22T08:18:20;100527.88;;;20.80
59339;BMP280;45117;50.960;5.500;2023-07-22T08:20:47;100549.78;;;21.06
59339;BMP280;45117;50.960;5.500;2023-07-22T08:23:14;100553.25;;;21.47
59339;BMP280;45117;50.960;5.500;2023-07-22T08:25:40;100544.81;;;21.96
59339;BMP280;45117;50.960;5.500;2023-07-22T08:28:07;100538.53;;;22.16
59339;BMP280;45117;50.960;5.500;2023-07-22T08:30:33;100541.31;;;22.22
59339;BMP280;45117;50.960;5.500;2023-07-22T08:33:02;100531.00;;;22.43
59339;BMP280;45117;50.960;5.500;2023-07-22T08:35:28;100547.09;;;22.29
59339;BMP280;45117;50.960;5.500;2023-07-22T08:37:55;100546.69;;;22.42
59339;BMP280;45117;50.960;5.500;2023-07-22T08:40:22;100551.22;;;22.51
59339;BMP280;45117;50.960;5.500;2023-07-22T08:42:49;100537.31;;;22.23
59339;BMP280;45117;50.960;5.500;2023-07-22T08:45:16;100535.41;;;21.72
59339;BMP280;45117;50.960;5.500;2023-07-22T08:47:45;100532.53;;;22.12
59339;BMP280;45117;50.960;5.500;2023-07-22T08:50:16;100553.19;;;22.50
59339;BMP280;45117;50.960;5.500;2023-07-22T08:52:53;100537.72;;;22.84
59339;BMP280;45117;50.960;5.500;2023-07-22T08:55:20;100543.78;;;23.05
59339;BMP280;45117;50.960;5.500;2023-07-22T08:57:48;100537.91;;;22.70
59339;BMP280;45117;50.960;5.500;2023-07-22T09:00:16;100542.22;;;21.82
59339;BMP280;45117;50.960;5.500;2023-07-22T09:02:44;100543.53;;;21.40
59339;BMP280;45117;50.960;5.500;2023-07-22T09:05:11;100551.00;;;21.91
59339;BMP280;45117;50.960;5.500;2023-07-22T09:07:40;100549.06;;;21.46
59339;BMP280;45117;50.960;5.500;2023-07-22T09:10:08;100548.50;;;21.42
59339;BMP280;45117;50.960;5.500;2023-07-22T09:12:35;100540.16;;;20.90
59339;BMP280;45117;50.960;5.500;2023-07-22T09:15:09;100553.75;;;21.05
59339;BMP280;45117;50.960;5.500;2023-07-22T09:17:36;100551.38;;;21.53
59339;BMP280;45117;50.960;5.500;2023-07-22T09:20:04;100542.53;;;21.89
59339;BMP280;45117;50.960;5.500;2023-07-22T09:22:32;100534.88;;;22.25
59339;BMP280;45117;50.960;5.500;2023-07-22T09:25:14;100526.66;;;22.62
59339;BMP280;45117;50.960;5.500;2023-07-22T09:27:41;100544.59;;;22.32
59339;BMP280;45117;50.960;5.500;2023-07-22T09:30:21;100553.13;;;22.39
59339;BMP280;45117;50.960;5.500;2023-07-22T09:32:48;100549.00;;;22.55
59339;BMP280;45117;50.960;5.500;2023-07-22T09:35:17;100536.53;;;22.96
59339;BMP280;45117;50.960;5.500;2023-07-22T09:37:44;100545.38;;;23.34
59339;BMP280;45117;50.960;5.500;2023-07-22T09:40:17;100552.84;;;23.34
59339;BMP280;45117;50.960;5.500;2023-07-22T09:42:46;100544.88;;;23.24
59339;BMP280;45117;50.960;5.500;2023-07-22T09:45:13;100553.69;;;23.79
59339;BMP280;45117;50.960;5.500;2023-07-22T09:47:40;100544.94;;;24.03
59339;BMP280;45117;50.960;5.500;2023-07-22T09:50:10;100530.72;;;24.15
59339;BMP280;45117;50.960;5.500;2023-07-22T09:52:44;100547.84;;;24.60
59339;BMP280;45117;50.960;5.500;2023-07-22T09:55:11;100536.50;;;25.33
59339;BMP280;45117;50.960;5.500;2023-07-22T09:57:45;100533.03;;;26.17
59339;BMP280;45117;50.960;5.500;2023-07-22T10:00:13;100503.91;;;26.02
59339;BMP280;45117;50.960;5.500;2023-07-22T10:02:48;100527.03;;;25.94
59339;BMP280;45117;50.960;5.500;2023-07-22T10:05:17;100544.47;;;26.02
59339;BMP280;45117;50.960;5.500;2023-07-22T10:07:46;100544.63;;;25.85
59339;BMP280;45117;50.960;5.500;2023-07-22T10:10:15;100548.63;;;26.14
59339;BMP280;45117;50.960;5.500;2023-07-22T10:12:46;100530.38;;;26.54
59339;BMP280;45117;50.960;5.500;2023-07-22T10:15:14;100514.78;;;25.35
59339;BMP280;45117;50.960;5.500;2023-07-22T10:17:43;100505.09;;;25.88
59339;BMP280;45117;50.960;5.500;2023-07-22T10:20:12;100533.06;;;25.92
59339;BMP280;45117;50.960;5.500;2023-07-22T10:22:42;100540.56;;;25.26
59339;BMP280;45117;50.960;5.500;2023-07-22T10:25:11;100529.63;;;26.11
59339;BMP280;45117;50.960;5.500;2023-07-22T10:27:38;100521.97;;;26.65
59339;BMP280;45117;50.960;5.500;2023-07-22T10:30:09;100515.75;;;26.22
59339;BMP280;45117;50.960;5.500;2023-07-22T10:32:37;100515.97;;;26.24
59339;BMP280;45117;50.960;5.500;2023-07-22T10:35:08;100514.47;;;24.97
59339;BMP280;45117;50.960;5.500;2023-07-22T10:37:37;100528.34;;;25.57
59339;BMP280;45117;50.960;5.500;2023-07-22T10:40:35;100526.47;;;26.25
59339;BMP280;45117;50.960;5.500;2023-07-22T10:43:10;100497.69;;;27.33
59339;BMP280;45117;50.960;5.500;2023-07-22T10:45:42;100513.78;;;27.48
59339;BMP280;45117;50.960;5.500;2023-07-22T10:48:12;100496.22;;;27.45
59339;BMP280;45117;50.960;5.500;2023-07-22T10:50:42;100505.53;;;26.78
59339;BMP280;45117;50.960;5.500;2023-07-22T10:53:11;100511.47;;;26.83
59339;BMP280;45117;50.960;5.500;2023-07-22T10:56:06;100515.09;;;27.28
59339;BMP280;45117;50.960;5.500;2023-07-22T10:58:57;100503.03;;;27.44
59339;BMP280;45117;50.960;5.500;2023-07-22T11:01:31;100500.22;;;27.18
59339;BMP280;45117;50.960;5.500;2023-07-22T11:04:09;100500.97;;;27.19
59339;BMP280;45117;50.960;5.500;2023-07-22T11:06:38;100494.41;;;27.03
59339;BMP280;45117;50.960;5.500;2023-07-22T11:09:05;100506.50;;;27.00
59339;BMP280;45117;50.960;5.500;2023-07-22T11:11:35;100481.50;;;27.11
59339;BMP280;45117;50.960;5.500;2023-07-22T11:14:13;100496.28;;;26.95
59339;BMP280;45117;50.960;5.500;2023-07-22T11:16:42;100482.69;;;27.16
59339;BMP280;45117;50.960;5.500;2023-07-22T11:19:09;100490.00;;;27.58
59339;BMP280;45117;50.960;5.500;2023-07-22T11:21:36;100485.50;;;27.42
59339;BMP280;45117;50.960;5.500;2023-07-22T11:24:03;100492.47;;;28.01
59339;BMP280;45117;50.960;5.500;2023-07-22T11:26:30;100497.88;;;28.20
59339;BMP280;45117;50.960;5.500;2023-07-22T11:28:57;100494.19;;;27.78
59339;BMP280;45117;50.960;5.500;2023-07-22T11:31:30;100500.22;;;27.76
59339;BMP280;45117;50.960;5.500;2023-07-22T11:33:58;100487.56;;;27.09
59339;BMP280;45117;50.960;5.500;2023-07-22T11:36:25;100493.50;;;27.59
59339;BMP280;45117;50.960;5.500;2023-07-22T11:38:52;100488.50;;;27.44
59339;BMP280;45117;50.960;5.500;2023-07-22T11:41:20;100481.56;;;27.82
59339;BMP280;45117;50.960;5.500;2023-07-22T11:43:47;100473.22;;;27.11
59339;BMP280;45117;50.960;5.500;2023-07-22T11:46:16;100481.72;;;28.24
59339;BMP280;45117;50.960;5.500;2023-07-22T11:48:49;100464.84;;;28.28
59339;BMP280;45117;50.960;5.500;2023-07-22T11:54:38;100427.88;;;28.04
59339;BMP280;45117;50.960;5.500;2023-07-22T11:57:13;100483.16;;;28.85
59339;BMP280;45117;50.960;5.500;2023-07-22T11:59:44;100460.88;;;28.36
59339;BMP280;45117;50.960;5.500;2023-07-22T12:02:17;100444.94;;;26.92
59339;BMP280;45117;50.960;5.500;2023-07-22T12:04:51;100455.84;;;27.88
59339;BMP280;45117;50.960;5.500;2023-07-22T12:07:22;100449.88;;;27.44
59339;BMP280;45117;50.960;5.500;2023-07-22T12:09:51;100447.22;;;27.38
59339;BMP280;45117;50.960;5.500;2023-07-22T12:12:18;100436.13;;;26.61
59339;BMP280;45117;50.960;5.500;2023-07-22T12:14:45;100447.28;;;26.31
59339;BMP280;45117;50.960;5.500;2023-07-22T12:17:11;100442.34;;;26.62
59339;BMP280;45117;50.960;5.500;2023-07-22T12:19:38;100437.66;;;27.39
59339;BMP280;45117;50.960;5.500;2023-07-22T12:22:05;100446.03;;;27.34
59339;BMP280;45117;50.960;5.500;2023-07-22T12:24:31;100437.47;;;26.55
59339;BMP280;45117;50.960;5.500;2023-07-22T12:27:00;100426.13;;;26.02
59339;BMP280;45117;50.960;5.500;2023-07-22T12:29:27;100454.06;;;26.49
59339;BMP280;45117;50.960;5.500;2023-07-22T12:31:53;100445.81;;;27.19
59339;BMP280;45117;50.960;5.500;2023-07-22T12:34:20;100409.03;;;26.09
59339;BMP280;45117;50.960;5.500;2023-07-22T12:36:47;100421.94;;;25.95
59339;BMP280;45117;50.960;5.500;2023-07-22T12:39:14;100441.41;;;26.22
59339;BMP280;45117;50.960;5.500;2023-07-22T12:41:41;100412.19;;;25.70
59339;BMP280;45117;50.960;5.500;2023-07-22T12:44:09;100433.47;;;25.10
59339;BMP280;45117;50.960;5.500;2023-07-22T12:46:36;100437.78;;;24.94
59339;BMP280;45117;50.960;5.500;2023-07-22T12:49:03;100369.03;;;25.59
59339;BMP280;45117;50.960;5.500;2023-07-22T12:51:31;100446.00;;;26.14
59339;BMP280;45117;50.960;5.500;2023-07-22T12:53:59;100436.28;;;25.88
59339;BMP280;45117;50.960;5.500;2023-07-22T12:56:25;100417.88;;;26.21
59339;BMP280;45117;50.960;5.500;2023-07-22T12:58:52;100429.63;;;26.21
59339;BMP280;45117;50.960;5.500;2023-07-22T13:01:20;100430.22;;;25.41
59339;BMP280;45117;50.960;5.500;2023-07-22T13:03:46;100424.31;;;24.96
59339;BMP280;45117;50.960;5.500;2023-07-22T13:06:13;100433.66;;;26.39
59339;BMP280;45117;50.960;5.500;2023-07-22T13:08:40;100403.53;;;25.60
59339;BMP280;45117;50.960;5.500;2023-07-22T13:11:06;100382.31;;;26.41
59339;BMP280;45117;50.960;5.500;2023-07-22T13:13:33;100427.44;;;26.38
59339;BMP280;45117;50.960;5.500;2023-07-22T13:16:00;100409.19;;;26.35
59339;BMP280;45117;50.960;5.500;2023-07-22T13:18:28;100424.13;;;26.77
59339;BMP280;45117;50.960;5.500;2023-07-22T13:20:54;100407.97;;;27.00
59339;BMP280;45117;50.960;5.500;2023-07-22T13:23:21;100435.38;;;26.23
59339;BMP280;45117;50.960;5.500;2023-07-22T13:25:47;100411.03;;;26.46
59339;BMP280;45117;50.960;5.500;2023-07-22T13:28:14;100425.47;;;26.52
59339;BMP280;45117;50.960;5.500;2023-07-22T13:30:41;100407.69;;;26.53
59339;BMP280;45117;50.960;5.500;2023-07-22T13:33:08;100424.47;;;26.87
59339;BMP280;45117;50.960;5.500;2023-07-22T13:35:36;100415.88;;;26.40
59339;BMP280;45117;50.960;5.500;2023-07-22T13:38:03;100404.75;;;25.65
59339;BMP280;45117;50.960;5.500;2023-07-22T13:40:30;100414.09;;;26.24
59339;BMP280;45117;50.960;5.500;2023-07-22T13:42:57;100396.88;;;26.55
59339;BMP280;45117;50.960;5.500;2023-07-22T13:45:24;100394.78;;;25.62
59339;BMP280;45117;50.960;5.500;2023-07-22T13:47:50;100394.81;;;25.81
59339;BMP280;45117;50.960;5.500;2023-07-22T13:50:17;100390.59;;;25.25
59339;BMP280;45117;50.960;5.500;2023-07-22T13:52:45;100389.22;;;25.67
59339;BMP280;45117;50.960;5.500;2023-07-22T13:55:12;100388.06;;;25.82
59339;BMP280;45117;50.960;5.500;2023-07-22T13:57:38;100392.63;;;25.98
59339;BMP280;45117;50.960;5.500;2023-07-22T14:00:06;100387.50;;;25.10
59339;BMP280;45117;50.960;5.500;2023-07-22T14:02:36;100393.16;;;25.48
59339;BMP280;45117;50.960;5.500;2023-07-22T14:05:04;100389.50;;;25.64